createdAt,value
2022-08-21T00:00:59.914Z,5.78
2022-08-21T00:03:27.456Z,5.60
2022-08-21T00:05:56.573Z,6.00
2022-08-21T00:08:24.157Z,5.78
2022-08-21T00:10:51.953Z,5.80
2022-08-21T00:13:20.653Z,6.32
2022-08-21T00:15:48.760Z,6.07
2022-08-21T00:18:17.064Z,5.82
2022-08-21T00:20:45.818Z,5.90
2022-08-21T00:23:15.467Z,5.87
2022-08-21T00:25:43.627Z,5.45
2022-08-21T00:28:11.303Z,5.55
2022-08-21T00:30:39.221Z,5.95
2022-08-21T00:33:07.367Z,6.28
2022-08-21T00:35:37.068Z,6.20
2022-08-21T00:38:05.452Z,6.00
2022-08-21T00:40:36.185Z,6.53
2022-08-21T00:43:04.458Z,6.63
2022-08-21T00:45:32.753Z,6.32
2022-08-21T00:48:00.328Z,6.20
2022-08-21T00:50:30.220Z,6.85
2022-08-21T00:52:57.996Z,6.88
2022-08-21T00:55:26.387Z,6.70
2022-08-21T00:57:57.857Z,7.05
2022-08-21T01:00:27.712Z,7.30
2022-08-21T01:02:55.307Z,6.95
2022-08-21T01:05:23.085Z,6.60
2022-08-21T01:07:50.735Z,7.20
2022-08-21T01:10:23.671Z,7.00
2022-08-21T01:12:52.485Z,6.57
2022-08-21T01:15:22.098Z,6.72
2022-08-21T01:17:50.251Z,6.43
2022-08-21T01:20:18.436Z,6.45
2022-08-21T01:22:47.371Z,6.72
2022-08-21T01:25:16.474Z,7.43
2022-08-21T01:27:44.111Z,7.20
2022-08-21T01:30:13.513Z,7.25
2022-08-21T01:32:41.390Z,7.45
2022-08-21T01:35:09.318Z,7.40
2022-08-21T01:37:37.093Z,7.00
2022-08-21T01:40:07.396Z,6.95
2022-08-21T01:42:35.348Z,7.50
2022-08-21T01:45:03.026Z,7.20
2022-08-21T01:47:30.588Z,7.07
2022-08-21T01:49:58.198Z,6.80
2022-08-21T01:52:25.727Z,6.55
2022-08-21T01:54:55.188Z,6.90
2022-08-21T01:57:26.043Z,6.40
2022-08-21T01:59:54.146Z,6.47
2022-08-21T02:02:21.718Z,6.50
2022-08-21T02:04:49.243Z,6.38
2022-08-21T02:07:16.974Z,6.68
2022-08-21T02:09:44.512Z,6.93
2022-08-21T02:12:12.371Z,7.00
2022-08-21T02:14:41.344Z,7.23
2022-08-21T02:17:09.947Z,6.88
2022-08-21T02:19:40.211Z,6.65
2022-08-21T02:22:08.514Z,7.30
2022-08-21T02:24:36.113Z,7.07
2022-08-21T02:27:06.310Z,7.07
2022-08-21T02:29:33.915Z,6.82
2022-08-21T02:32:02.868Z,6.50
2022-08-21T02:34:30.887Z,6.15
2022-08-21T02:36:59.555Z,6.93
2022-08-21T02:39:27.773Z,6.63
2022-08-21T02:41:55.413Z,6.15
2022-08-21T02:44:30.076Z,6.50
2022-08-21T02:47:03.660Z,6.22
2022-08-21T02:49:31.184Z,6.15
2022-08-21T02:51:58.779Z,6.27
2022-08-21T02:54:26.282Z,6.35
2022-08-21T02:56:53.864Z,5.88
2022-08-21T02:59:21.439Z,6.28
2022-08-21T03:01:49.056Z,6.15
2022-08-21T03:04:18.035Z,6.00
2022-08-21T03:06:45.907Z,6.30
2022-08-21T03:09:13.495Z,5.80
2022-08-21T03:11:41.075Z,6.30
2022-08-21T03:14:08.631Z,6.50
2022-08-21T03:16:36.218Z,6.67
2022-08-21T03:19:04.302Z,6.15
2022-08-21T03:21:33.217Z,6.53
2022-08-21T03:24:02.897Z,6.70
2022-08-21T03:26:31.885Z,6.63
2022-08-21T03:29:00.044Z,6.93
2022-08-21T03:31:30.107Z,6.90
2022-08-21T03:33:57.679Z,6.97
2022-08-21T03:36:25.458Z,6.78
2022-08-21T03:38:54.333Z,6.68
2022-08-21T03:41:22.131Z,6.43
2022-08-21T03:43:49.709Z,6.82
2022-08-21T03:46:17.301Z,6.35
2022-08-21T03:48:45.360Z,6.63
2022-08-21T03:51:13.171Z,6.95
2022-08-21T03:53:40.813Z,7.00
2022-08-21T03:56:09.881Z,7.22
2022-08-21T03:58:37.445Z,7.38
2022-08-21T04:01:05.540Z,6.97
2022-08-21T04:03:33.149Z,7.35
2022-08-21T04:06:00.716Z,7.40
2022-08-21T04:08:28.251Z,6.88
2022-08-21T04:10:57.324Z,7.28
2022-08-21T04:13:27.650Z,6.97
2022-08-21T04:15:55.193Z,7.05
2022-08-21T04:18:22.861Z,6.20
2022-08-21T04:20:51.786Z,7.60
2022-08-21T04:23:23.374Z,6.88
2022-08-21T04:25:52.175Z,7.18
2022-08-21T04:28:19.768Z,6.32
2022-08-21T04:30:48.943Z,6.73
2022-08-21T04:33:16.595Z,6.22
2022-08-21T04:35:44.474Z,6.32
2022-08-21T04:38:12.661Z,6.38
2022-08-21T04:40:40.320Z,6.13
2022-08-21T04:43:09.315Z,6.30
2022-08-21T04:45:39.227Z,6.25
2022-08-21T04:48:13.850Z,6.30
2022-08-21T04:50:43.905Z,6.80
2022-08-21T04:53:13.831Z,5.72
2022-08-21T04:55:41.715Z,5.70
2022-08-21T04:58:10.484Z,5.82
2022-08-21T05:00:38.065Z,5.50
2022-08-21T05:03:07.342Z,5.93
2022-08-21T05:05:36.704Z,5.70
2022-08-21T05:08:04.790Z,5.50
2022-08-21T05:10:33.626Z,5.50
2022-08-21T05:13:02.124Z,5.80
2022-08-21T05:15:30.959Z,5.75
2022-08-21T05:18:00.958Z,5.28
2022-08-21T05:20:29.358Z,5.53
2022-08-21T05:22:58.694Z,5.35
2022-08-21T05:25:28.126Z,5.70
2022-08-21T05:27:55.931Z,5.22
2022-08-21T05:30:25.759Z,5.45
2022-08-21T05:32:58.070Z,5.30
2022-08-21T05:35:25.839Z,5.28
2022-08-21T05:37:53.413Z,5.38
2022-08-21T05:40:23.446Z,5.40
2022-08-21T05:42:54.031Z,4.95
2022-08-21T05:45:25.108Z,4.97
2022-08-21T05:48:10.604Z,5.03
2022-08-21T05:50:38.557Z,4.75
2022-08-21T05:53:07.754Z,4.40
2022-08-21T05:55:40.180Z,4.70
2022-08-21T05:58:10.504Z,4.50
2022-08-21T06:00:38.182Z,4.82
2022-08-21T06:03:05.846Z,4.30
2022-08-21T06:05:36.576Z,4.22
2022-08-21T06:08:05.370Z,4.50
2022-08-21T06:10:32.911Z,4.00
2022-08-21T06:13:01.814Z,4.22
2022-08-21T06:15:29.368Z,4.22
2022-08-21T06:17:57.021Z,4.60
2022-08-21T06:20:24.710Z,4.97
2022-08-21T06:22:52.309Z,4.20
2022-08-21T06:25:20.257Z,4.20
2022-08-21T06:27:48.123Z,4.00
2022-08-21T06:30:17.055Z,3.90
2022-08-21T06:32:44.884Z,4.10
2022-08-21T06:35:12.486Z,3.60
2022-08-21T06:37:40.058Z,3.90
2022-08-21T06:40:12.574Z,3.75
2022-08-21T06:42:41.536Z,3.92
2022-08-21T06:45:10.843Z,3.80
2022-08-21T06:47:39.727Z,4.27
2022-08-21T06:50:09.375Z,4.53
2022-08-21T06:52:37.139Z,4.13
2022-08-21T06:55:06.141Z,3.80
2022-08-21T06:57:33.708Z,3.65
2022-08-21T07:00:01.369Z,3.20
2022-08-21T07:02:28.958Z,3.50
2022-08-21T07:04:57.865Z,3.53
2022-08-21T07:07:25.445Z,2.72
2022-08-21T07:09:53.013Z,3.35
2022-08-21T07:12:21.374Z,2.90
2022-08-21T07:14:49.668Z,3.15
2022-08-21T07:17:17.237Z,2.80
2022-08-21T07:19:44.872Z,3.20
2022-08-21T07:22:14.133Z,2.83
2022-08-21T07:24:41.724Z,2.97
2022-08-21T07:27:10.186Z,2.72
2022-08-21T07:29:38.008Z,2.92
2022-08-21T07:32:06.146Z,2.85
2022-08-21T07:34:33.997Z,2.70
2022-08-21T07:37:10.082Z,2.67
2022-08-21T07:39:39.317Z,2.70
2022-08-21T07:42:08.580Z,2.55
2022-08-21T07:44:36.290Z,2.70
2022-08-21T07:47:03.857Z,2.30
2022-08-21T07:49:31.481Z,2.50
2022-08-21T07:51:59.342Z,2.78
2022-08-21T07:54:33.950Z,2.47
2022-08-21T07:57:03.953Z,2.80
2022-08-21T07:59:31.516Z,2.50
2022-08-21T08:01:59.317Z,2.73
2022-08-21T08:04:26.883Z,2.83
2022-08-21T08:06:54.491Z,2.58
2022-08-21T08:09:22.130Z,2.63
2022-08-21T08:11:49.742Z,2.72
2022-08-21T08:14:18.665Z,2.60
2022-08-21T08:16:46.310Z,2.50
2022-08-21T08:19:13.838Z,2.70
2022-08-21T08:21:41.388Z,2.95
2022-08-21T08:24:18.465Z,2.83
2022-08-21T08:26:53.395Z,2.70
2022-08-21T08:29:23.219Z,3.50
2022-08-21T08:31:50.818Z,2.70
2022-08-21T08:34:25.753Z,2.97
2022-08-21T08:36:54.358Z,3.00
2022-08-21T08:39:26.341Z,3.20
2022-08-21T08:41:58.762Z,3.25
2022-08-21T08:44:30.314Z,3.00
2022-08-21T08:46:58.578Z,3.10
2022-08-21T08:49:29.188Z,3.50
2022-08-21T08:52:01.624Z,3.83
2022-08-21T08:54:32.587Z,3.60
2022-08-21T08:57:00.581Z,3.80
2022-08-21T08:59:36.170Z,4.03
2022-08-21T09:02:03.803Z,4.20
2022-08-21T09:04:31.549Z,3.88
2022-08-21T09:07:03.544Z,3.90
2022-08-21T09:09:35.339Z,3.78
2022-08-21T09:12:05.887Z,3.80
2022-08-21T09:14:53.073Z,3.80
2022-08-21T09:17:24.786Z,4.10
2022-08-21T09:19:59.954Z,3.60
2022-08-21T09:22:31.705Z,4.03
2022-08-21T09:25:03.808Z,3.95
2022-08-21T09:27:32.419Z,3.67
2022-08-21T09:30:02.723Z,3.80
2022-08-21T09:32:37.737Z,3.70
2022-08-21T09:35:08.216Z,4.00
2022-08-21T09:37:37.099Z,4.90
2022-08-21T09:40:05.471Z,3.97
2022-08-21T09:42:34.017Z,4.35
2022-08-21T09:45:11.891Z,4.30
2022-08-21T09:47:39.509Z,4.40
2022-08-21T09:50:11.456Z,3.90
2022-08-21T09:52:44.533Z,4.32
2022-08-21T09:55:37.195Z,4.00
2022-08-21T09:58:03.841Z,3.70
2022-08-21T10:00:34.149Z,4.07
2022-08-21T10:03:12.244Z,3.80
2022-08-21T10:05:40.567Z,4.00
2022-08-21T10:08:17.939Z,4.10
2022-08-21T10:10:45.478Z,3.88
2022-08-21T10:13:15.822Z,4.22
2022-08-21T10:15:50.100Z,4.00
2022-08-21T10:18:21.055Z,4.60
2022-08-21T10:20:52.139Z,3.97
2022-08-21T10:23:28.382Z,3.93
2022-08-21T10:26:12.877Z,4.28
2022-08-21T10:39:02.675Z,4.20
2022-08-21T10:41:34.197Z,3.90
2022-08-21T10:44:07.772Z,3.90
2022-08-21T10:46:40.763Z,4.50
2022-08-21T10:49:14.521Z,4.20
2022-08-21T10:51:42.815Z,4.30
2022-08-21T10:54:19.105Z,3.90
2022-08-21T11:04:50.638Z,4.00
2022-08-21T11:07:20.281Z,4.10
2022-08-21T11:09:48.407Z,4.32
2022-08-21T11:12:20.172Z,3.80
2022-08-21T11:14:52.032Z,3.97
2022-08-21T11:17:22.187Z,4.20
2022-08-21T11:19:51.058Z,4.10
2022-08-21T11:29:47.672Z,3.80
2022-08-21T11:32:26.883Z,4.30
2022-08-21T11:35:02.940Z,4.10
2022-08-21T11:37:37.190Z,4.38
2022-08-21T11:40:06.323Z,3.42
2022-08-21T11:42:38.642Z,4.18
2022-08-21T11:45:15.983Z,4.15
2022-08-21T11:47:53.879Z,4.00
2022-08-21T11:50:34.509Z,4.00
2022-08-21T11:53:05.809Z,4.47
2022-08-21T11:55:34.383Z,3.92
2022-08-21T11:58:04.139Z,3.60
2022-08-21T12:00:34.838Z,4.07
2022-08-21T12:03:09.461Z,3.90
2022-08-21T12:05:39.303Z,3.28
2022-08-21T12:08:12.118Z,2.97
2022-08-21T12:10:40.925Z,3.45
2022-08-21T12:13:10.351Z,3.87
2022-08-21T12:15:39.527Z,2.80
2022-08-21T12:18:08.034Z,3.50
2022-08-21T12:20:50.121Z,3.45
2022-08-21T12:23:19.761Z,3.22
2022-08-21T12:25:49.356Z,3.53
2022-08-21T12:28:18.317Z,3.20
2022-08-21T12:30:48.913Z,3.85
2022-08-21T12:33:22.061Z,4.15
2022-08-21T12:35:50.857Z,3.20
2022-08-21T12:38:20.953Z,3.25
2022-08-21T12:40:51.064Z,3.33
2022-08-21T12:43:20.532Z,3.00
2022-08-21T12:45:50.309Z,3.00
2022-08-21T12:48:20.713Z,3.67
2022-08-21T12:50:53.688Z,3.28
2022-08-21T12:53:27.278Z,3.50
2022-08-21T12:55:56.113Z,2.90
2022-08-21T12:58:24.381Z,4.00
2022-08-21T13:00:54.475Z,3.55
2022-08-21T13:03:23.123Z,3.72
2022-08-21T13:05:52.811Z,3.57
2022-08-21T13:08:21.514Z,3.92
2022-08-21T13:10:49.908Z,3.67
2022-08-21T13:13:25.714Z,3.78
2022-08-21T13:16:01.160Z,3.40
2022-08-21T13:18:29.961Z,3.17
2022-08-21T13:21:07.966Z,3.47
2022-08-21T13:23:35.927Z,3.70
2022-08-21T13:26:18.257Z,4.20
2022-08-21T13:28:48.314Z,4.20
2022-08-21T13:31:20.224Z,3.53
2022-08-21T13:33:47.860Z,4.10
2022-08-21T13:36:17.251Z,3.70
2022-08-21T13:38:46.274Z,3.40
2022-08-21T13:41:20.082Z,3.65
2022-08-21T13:43:48.964Z,3.20
2022-08-21T13:46:16.936Z,3.60
2022-08-21T13:48:45.996Z,3.70
2022-08-21T13:51:14.198Z,3.38
2022-08-21T13:53:47.036Z,3.72
2022-08-21T13:56:23.724Z,3.33
2022-08-21T13:58:51.273Z,3.30
2022-08-21T14:01:23.367Z,3.47
2022-08-21T14:03:54.199Z,3.65
2022-08-21T14:06:23.395Z,3.63
2022-08-21T14:08:52.719Z,3.20
2022-08-21T14:11:20.563Z,3.10
2022-08-21T14:13:49.879Z,3.28
2022-08-21T14:16:18.943Z,3.20
2022-08-21T14:18:51.008Z,3.10
2022-08-21T14:21:29.405Z,3.50
2022-08-21T14:24:08.071Z,3.40
2022-08-21T14:26:37.106Z,3.20
2022-08-21T14:29:10.441Z,3.33
2022-08-21T14:31:41.880Z,3.60
2022-08-21T14:34:19.195Z,3.23
2022-08-21T14:36:48.866Z,3.30
2022-08-21T14:39:16.437Z,3.33
2022-08-21T14:41:44.697Z,3.30
2022-08-21T14:44:12.407Z,3.20
2022-08-21T14:46:56.012Z,4.20
2022-08-21T14:49:24.887Z,3.15
2022-08-21T14:51:57.816Z,3.17
2022-08-21T14:54:31.771Z,2.90
2022-08-21T14:57:00.966Z,3.10
2022-08-21T14:59:28.574Z,2.83
2022-08-21T15:01:57.197Z,3.00
2022-08-21T15:04:24.871Z,3.17
2022-08-21T15:06:53.779Z,2.50
2022-08-21T15:09:21.338Z,3.35
2022-08-21T15:11:49.024Z,2.70
2022-08-21T15:14:19.719Z,3.15
2022-08-21T15:16:47.695Z,2.95
2022-08-21T15:19:15.231Z,2.72
2022-08-21T15:21:42.802Z,2.92
2022-08-21T15:24:11.768Z,3.33
2022-08-21T15:26:39.450Z,3.20
2022-08-21T15:29:08.288Z,3.55
2022-08-21T15:31:36.041Z,3.45
2022-08-21T15:34:03.693Z,3.03
2022-08-21T15:36:31.320Z,2.80
2022-08-21T15:38:58.889Z,3.00
2022-08-21T15:41:27.895Z,2.85
2022-08-21T15:43:55.556Z,3.03
2022-08-21T15:46:23.420Z,2.90
2022-08-21T15:48:51.189Z,3.10
2022-08-21T15:51:18.832Z,3.30
2022-08-21T15:53:47.391Z,2.97
2022-08-21T15:56:20.021Z,2.95
2022-08-21T15:58:49.046Z,2.90
2022-08-21T16:01:16.702Z,2.57
2022-08-21T16:03:46.075Z,3.00
2022-08-21T16:06:13.603Z,3.30
2022-08-21T16:08:41.182Z,2.53
2022-08-21T16:11:08.822Z,2.70
2022-08-21T16:13:38.452Z,2.90
2022-08-21T16:16:08.300Z,2.58
2022-08-21T16:18:35.838Z,2.80
2022-08-21T16:21:03.388Z,2.60
2022-08-21T16:23:30.930Z,2.90
2022-08-21T16:25:59.729Z,2.70
2022-08-21T16:28:27.378Z,2.50
2022-08-21T16:30:54.974Z,2.88
2022-08-21T16:33:26.508Z,2.90
2022-08-21T16:35:54.184Z,2.90
2022-08-21T16:38:21.790Z,2.63
2022-08-21T16:40:49.394Z,2.78
2022-08-21T16:43:17.027Z,3.15
2022-08-21T16:45:45.032Z,2.65
2022-08-21T16:48:12.737Z,2.97
2022-08-21T16:50:41.699Z,2.90
2022-08-21T16:53:09.246Z,2.63
2022-08-21T16:55:36.937Z,2.88
2022-08-21T16:58:05.800Z,2.38
2022-08-21T17:00:33.362Z,2.50
2022-08-21T17:03:01.086Z,2.60
2022-08-21T17:05:28.669Z,2.70
2022-08-21T17:07:57.578Z,2.95
2022-08-21T17:10:25.111Z,2.53
2022-08-21T17:12:55.840Z,2.97
2022-08-21T17:15:25.093Z,3.10
2022-08-21T17:17:53.242Z,3.20
2022-08-21T17:20:21.114Z,3.00
2022-08-21T17:22:48.682Z,3.53
2022-08-21T17:25:17.627Z,3.20
2022-08-21T17:27:45.885Z,2.97
2022-08-21T17:30:14.219Z,2.63
2022-08-21T17:32:42.287Z,2.80
2022-08-21T17:35:10.461Z,3.15
2022-08-21T17:37:38.051Z,3.10
2022-08-21T17:40:06.799Z,3.23
2022-08-21T17:42:35.911Z,2.90
2022-08-21T17:45:03.986Z,2.80
2022-08-21T17:47:31.625Z,2.88
2022-08-21T17:49:59.157Z,2.83
2022-08-21T17:52:26.707Z,2.80
2022-08-21T17:54:54.232Z,2.67
2022-08-21T17:57:23.297Z,2.90
2022-08-21T17:59:55.265Z,2.72
2022-08-21T18:02:25.546Z,2.75
2022-08-21T18:04:55.460Z,2.90
2022-08-21T18:07:31.800Z,3.60
2022-08-21T18:10:01.061Z,3.03
2022-08-21T18:12:28.664Z,2.90
2022-08-21T18:14:57.608Z,2.90
2022-08-21T18:17:28.346Z,3.20
2022-08-21T18:19:56.072Z,3.10
2022-08-21T18:22:23.599Z,3.25
2022-08-21T18:24:51.147Z,3.58
2022-08-21T18:27:18.935Z,3.53
2022-08-21T18:29:47.600Z,3.13
2022-08-21T18:32:25.710Z,3.20
2022-08-21T18:35:00.169Z,3.38
2022-08-21T18:37:27.744Z,3.53
2022-08-21T18:39:55.455Z,3.55
2022-08-21T18:42:28.704Z,3.17
2022-08-21T18:44:59.522Z,3.30
2022-08-21T18:47:32.644Z,3.35
2022-08-21T18:50:00.227Z,3.63
2022-08-21T18:52:28.522Z,3.40
2022-08-21T18:54:56.521Z,3.40
2022-08-21T18:57:26.644Z,3.55
2022-08-21T18:59:54.156Z,3.15
2022-08-21T19:02:21.720Z,3.58
2022-08-21T19:04:53.348Z,3.40
2022-08-21T19:07:21.732Z,3.30
2022-08-21T19:10:14.098Z,3.30
2022-08-21T19:12:37.540Z,3.30
2022-08-21T19:15:07.809Z,3.30
2022-08-21T19:17:35.402Z,3.30
2022-08-21T19:20:08.068Z,3.30
2022-08-21T19:23:03.252Z,2.90
2022-08-21T19:25:33.846Z,3.30
2022-08-21T19:28:02.539Z,3.22
2022-08-21T19:30:30.855Z,3.40
2022-08-21T19:32:58.675Z,3.03
2022-08-21T19:35:29.170Z,3.35
2022-08-21T19:37:56.702Z,3.40
2022-08-21T19:40:24.343Z,3.00
2022-08-21T19:42:51.935Z,3.30
2022-08-21T19:45:19.512Z,2.87
2022-08-21T19:47:50.846Z,3.28
2022-08-21T19:50:21.338Z,3.20
2022-08-21T19:52:51.388Z,3.05
2022-08-21T19:55:19.471Z,3.40
2022-08-21T19:57:47.124Z,3.07
2022-08-21T20:03:04.440Z,3.25
2022-08-21T20:05:39.553Z,3.72
2022-08-21T20:08:11.751Z,3.15
2022-08-21T20:10:49.983Z,3.77
2022-08-21T20:13:17.855Z,3.17
2022-08-21T20:15:46.338Z,3.50
2022-08-21T20:18:14.296Z,3.53
2022-08-21T20:20:41.913Z,3.97
2022-08-21T20:23:11.104Z,3.50
2022-08-21T20:25:39.434Z,3.70
2022-08-21T20:28:07.607Z,3.40
2022-08-21T20:30:35.926Z,3.47
2022-08-21T20:33:03.822Z,3.50
2022-08-21T20:35:31.421Z,3.17
2022-08-21T20:37:59.473Z,3.47
2022-08-21T20:40:32.746Z,3.45
2022-08-21T20:43:01.274Z,3.20
2022-08-21T20:45:29.934Z,3.10
2022-08-21T20:48:00.081Z,3.20
2022-08-21T20:50:29.856Z,3.10
2022-08-21T20:53:01.011Z,3.13
2022-08-21T20:55:31.830Z,3.65
2022-08-21T20:58:02.933Z,3.40
2022-08-21T21:00:32.764Z,3.23
2022-08-21T21:03:04.353Z,3.95
2022-08-21T21:05:34.357Z,3.00
2022-08-21T21:08:04.711Z,3.53
2022-08-21T21:10:37.994Z,3.60
2022-08-21T21:13:09.604Z,3.20
2022-08-21T21:15:37.822Z,3.40
2022-08-21T21:18:08.180Z,3.40
2022-08-21T21:20:45.819Z,4.10
2022-08-21T21:23:16.987Z,4.05
2022-08-21T21:25:53.854Z,3.40
2022-08-21T21:28:23.827Z,3.60
2022-08-21T21:30:52.021Z,3.50
2022-08-21T21:33:25.606Z,3.40
2022-08-21T21:35:59.341Z,3.30
2022-08-21T21:38:32.359Z,3.70
2022-08-21T21:41:11.513Z,3.72
2022-08-21T21:43:53.935Z,3.40
2022-08-21T21:46:27.528Z,3.50
2022-08-21T21:49:04.396Z,3.60
2022-08-21T21:51:38.916Z,3.37
2022-08-21T21:54:13.197Z,3.45
2022-08-21T21:56:48.313Z,3.67
2022-08-21T21:59:24.735Z,3.25
2022-08-21T22:02:01.585Z,3.40
2022-08-21T22:04:33.797Z,3.50
2022-08-21T22:07:05.525Z,3.45
2022-08-21T22:09:39.332Z,3.28
2022-08-21T22:12:14.284Z,3.42
2022-08-21T22:14:43.897Z,3.47
2022-08-21T22:17:22.517Z,3.67
2022-08-21T22:19:53.166Z,3.65
2022-08-21T22:22:22.175Z,3.90
2022-08-21T22:24:51.632Z,4.15
2022-08-21T22:27:21.887Z,3.78
2022-08-21T22:29:50.547Z,3.37
2022-08-21T22:32:26.160Z,3.40
2022-08-21T22:35:05.157Z,3.40
2022-08-21T22:37:37.693Z,3.45
2022-08-21T22:40:08.451Z,3.63
2022-08-21T22:42:37.475Z,3.43
2022-08-21T22:45:09.399Z,3.35
2022-08-21T22:47:40.969Z,3.50
2022-08-21T22:50:17.839Z,3.40
2022-08-21T22:52:46.904Z,3.60
2022-08-21T22:55:18.910Z,3.27
2022-08-21T22:58:04.151Z,3.58
2022-08-21T23:00:47.232Z,3.45
2022-08-21T23:03:18.988Z,3.45
2022-08-21T23:05:46.553Z,3.70
2022-08-21T23:08:24.195Z,3.80
2022-08-21T23:10:57.102Z,3.63
2022-08-21T23:13:26.248Z,3.35
2022-08-21T23:15:57.859Z,3.35
2022-08-21T23:18:30.305Z,3.58
2022-08-21T23:21:01.027Z,3.50
2022-08-21T23:23:31.406Z,3.40
2022-08-21T23:26:17.314Z,3.63
2022-08-21T23:29:09.763Z,3.55
2022-08-21T23:31:41.483Z,3.38
2022-08-21T23:34:20.055Z,3.33
2022-08-21T23:37:18.086Z,3.88
2022-08-21T23:39:57.111Z,3.65
2022-08-21T23:42:37.679Z,3.38
2022-08-21T23:45:21.835Z,3.10
2022-08-21T23:47:58.393Z,2.97
2022-08-21T23:50:27.580Z,3.45
2022-08-21T23:53:09.216Z,3.42
2022-08-21T23:55:56.917Z,3.65
2022-08-21T23:58:30.455Z,3.50
